Manuel Ocampo, Argentina
Current Conditions -  °F | °C
As of 9:00 AM on Wednesday 22 Oct 2014 (Local Time) from SAAR Reporting Station
Clear Clear  
Wind Chill: 73°   Ceiling: Unl
Heat Index: 73°   Visibility: 6mi
Dew Point: 57°   Wind: 12mph
Humidity: 57%   Direction: 20°NNE
Pressure: 30"   Gusts: NA
Location:  33.77°S, 60.65°W
Report Text: SAAR 221200Z 02010KT CAVOK 23/14 Q1016
Loading
Personal Weather Stations






























Interactive Weather Map New forecast layout! Learn more

10-Day Weather Forecast

Advertisements
Track Severe Weather on mobile